Time;durP1;ratioP1;P1;durP2;ratioP2;P2;SDS_P1;SDS_P2;PMS_P1;PMS_P2;Temp;Humidity;BMP_temperature;BMP_pressure;BME280_temperature;BME280_humidity;BME280_pressure;Samples;Min_cycle;Max_cycle;Signal;HPM_P1;HPM_P2
2020/12/31 00:01:23;;;;;;;16.07;14.37;;;5.20;99.90;;;;;;5115607;28;20188;-77
2020/12/31 00:03:49;;;;;;;16.97;14.17;;;5.30;99.90;;;;;;5095207;28;20234;-77
2020/12/31 00:06:15;;;;;;;15.23;13.50;;;5.40;99.90;;;;;;5117303;27;20213;-77
2020/12/31 00:08:41;;;;;;;16.30;14.60;;;5.40;99.90;;;;;;5097866;28;20247;-77
2020/12/31 00:11:07;;;;;;;18.80;14.40;;;5.30;99.90;;;;;;5097733;28;20211;-78
2020/12/31 00:13:32;;;;;;;18.00;14.77;;;5.30;99.90;;;;;;5115159;28;20195;-77
2020/12/31 00:15:59;;;;;;;15.70;14.03;;;5.30;99.90;;;;;;5114459;28;20187;-77
2020/12/31 00:18:25;;;;;;;18.20;13.80;;;5.40;99.90;;;;;;5106711;28;20239;-77
2020/12/31 00:20:51;;;;;;;15.67;13.13;;;5.40;99.90;;;;;;5115080;28;20192;-77
2020/12/31 00:23:17;;;;;;;16.53;12.53;;;5.40;99.90;;;;;;5114774;28;20756;-77
2020/12/31 00:25:48;;;;;;;14.20;12.80;;;5.20;99.90;;;;;;5114615;28;20189;-77
2020/12/31 00:28:14;;;;;;;17.50;12.33;;;5.40;99.90;;;;;;5116624;27;20189;-77
2020/12/31 00:30:40;;;;;;;15.50;12.33;;;5.30;99.90;;;;;;5115889;28;20193;-77
2020/12/31 00:33:05;;;;;;;14.53;12.33;;;5.20;99.90;;;;;;5096982;28;20184;-77
2020/12/31 00:35:32;;;;;;;15.07;12.17;;;5.30;99.90;;;;;;5115686;28;20177;-77
2020/12/31 00:37:58;;;;;;;15.27;12.33;;;5.40;99.90;;;;;;5114193;28;20211;-77
2020/12/31 00:40:23;;;;;;;15.47;12.47;;;5.40;99.90;;;;;;5097112;28;20659;-77
2020/12/31 00:42:49;;;;;;;16.60;12.13;;;5.50;99.90;;;;;;5114261;28;20184;-77
2020/12/31 00:45:14;;;;;;;16.60;12.43;;;5.50;99.90;;;;;;5114555;28;20192;-77
2020/12/31 00:47:40;;;;;;;21.00;13.03;;;5.50;99.90;;;;;;5107381;28;20217;-77
2020/12/31 00:50:06;;;;;;;16.40;12.43;;;5.40;99.90;;;;;;5097108;28;20183;-77
2020/12/31 00:52:31;;;;;;;14.27;12.67;;;5.50;99.90;;;;;;5114357;28;20208;-76
2020/12/31 00:54:57;;;;;;;18.27;12.97;;;5.50;99.90;;;;;;5113779;28;20278;-77
2020/12/31 00:57:22;;;;;;;17.57;13.63;;;5.50;99.90;;;;;;5093714;28;20641;-77
2020/12/31 00:59:48;;;;;;;21.00;14.53;;;5.40;99.90;;;;;;5097141;28;20275;-77
2020/12/31 01:02:14;;;;;;;19.17;14.40;;;5.50;99.90;;;;;;5113698;28;20207;-77
2020/12/31 01:04:39;;;;;;;24.30;14.90;;;5.30;99.90;;;;;;5096937;28;20212;-78
2020/12/31 01:07:05;;;;;;;19.03;14.80;;;5.30;99.90;;;;;;5113428;28;20209;-77
2020/12/31 01:09:33;;;;;;;19.00;15.23;;;5.30;99.90;;;;;;5110558;28;20181;-77
2020/12/31 01:11:58;;;;;;;18.07;14.20;;;5.30;99.90;;;;;;5114710;28;20188;-77
2020/12/31 01:14:24;;;;;;;21.03;13.23;;;5.20;99.90;;;;;;5113485;28;20184;-77
2020/12/31 01:16:50;;;;;;;18.03;12.47;;;5.30;99.90;;;;;;5113833;28;20183;-77
2020/12/31 01:19:16;;;;;;;15.53;12.53;;;5.30;99.90;;;;;;5099511;28;20270;-77
2020/12/31 01:21:45;;;;;;;14.23;11.57;;;5.30;99.90;;;;;;5079410;28;20184;-77
2020/12/31 01:24:12;;;;;;;13.93;10.47;;;5.30;99.90;;;;;;5114822;28;20193;-77
2020/12/31 01:26:37;;;;;;;12.83;10.57;;;5.30;99.90;;;;;;5079542;28;20208;-77
2020/12/31 01:29:03;;;;;;;13.57;9.73;;;5.30;99.90;;;;;;5114316;28;20257;-77
2020/12/31 01:31:29;;;;;;;12.57;9.60;;;5.30;99.90;;;;;;5114696;28;20185;-77
2020/12/31 01:33:55;;;;;;;13.17;9.43;;;5.30;99.90;;;;;;5096669;28;20223;-77
2020/12/31 01:36:21;;;;;;;13.17;8.30;;;5.20;99.90;;;;;;5112908;28;20328;-77
2020/12/31 01:38:47;;;;;;;10.10;7.40;;;5.20;99.90;;;;;;5096160;28;20669;-77
2020/12/31 01:41:14;;;;;;;10.70;7.30;;;5.10;99.90;;;;;;5113077;28;20209;-77
2020/12/31 01:43:39;;;;;;;7.93;6.13;;;5.10;99.90;;;;;;5112550;28;20241;-77
2020/12/31 01:46:10;;;;;;;9.23;5.83;;;4.80;99.90;;;;;;5114748;28;20651;-77
2020/12/31 01:48:38;;;;;;;10.60;5.80;;;4.70;99.90;;;;;;5096636;28;20219;-77
2020/12/31 01:51:04;;;;;;;9.17;6.07;;;4.70;99.90;;;;;;5114464;28;20179;-77
2020/12/31 01:53:29;;;;;;;10.27;6.30;;;4.90;99.90;;;;;;5096496;28;20180;-77
2020/12/31 01:56:00;;;;;;;9.23;6.77;;;5.20;99.90;;;;;;5113488;28;20652;-77
2020/12/31 01:58:26;;;;;;;11.17;6.20;;;5.30;99.90;;;;;;5114213;28;20198;-77
2020/12/31 02:00:51;;;;;;;10.53;6.47;;;5.40;99.90;;;;;;5113115;28;20292;-77
2020/12/31 02:03:17;;;;;;;9.37;6.10;;;5.40;99.90;;;;;;5114335;28;20203;-76
2020/12/31 02:05:44;;;;;;;8.33;6.13;;;5.30;99.90;;;;;;5113057;28;20636;-77
2020/12/31 02:08:10;;;;;;;7.10;5.80;;;5.30;99.90;;;;;;5095942;28;20635;-77
2020/12/31 02:10:35;;;;;;;7.47;5.97;;;5.20;99.90;;;;;;5075744;28;20176;-76
2020/12/31 02:13:01;;;;;;;8.87;6.00;;;5.20;99.90;;;;;;5092690;28;20184;-77
2020/12/31 02:15:27;;;;;;;5.97;5.10;;;5.00;99.90;;;;;;5075694;28;20231;-77
2020/12/31 02:17:52;;;;;;;8.17;5.13;;;4.90;99.90;;;;;;5075506;28;20181;-77
2020/12/31 02:20:18;;;;;;;8.70;5.67;;;5.00;99.90;;;;;;5081253;28;20188;-78
2020/12/31 02:22:44;;;;;;;7.70;5.70;;;5.10;99.90;;;;;;5112961;28;20545;-78
2020/12/31 02:25:09;;;;;;;10.73;5.93;;;5.10;99.90;;;;;;5112841;28;20187;-77
2020/12/31 02:27:35;;;;;;;8.67;5.30;;;5.20;99.90;;;;;;5112676;28;20264;-78
2020/12/31 02:30:01;;;;;;;12.37;6.20;;;5.00;99.90;;;;;;5095735;28;20630;-77
2020/12/31 02:32:26;;;;;;;8.20;6.20;;;4.90;99.90;;;;;;5112790;28;20179;-77
2020/12/31 02:34:52;;;;;;;12.00;6.83;;;5.00;99.90;;;;;;5095411;28;20544;-77
2020/12/31 02:37:18;;;;;;;12.33;6.93;;;5.00;99.90;;;;;;5114105;28;20177;-77
2020/12/31 02:39:43;;;;;;;13.30;8.17;;;5.20;99.90;;;;;;5095574;28;20196;-78
2020/12/31 02:42:09;;;;;;;14.43;8.30;;;5.10;99.90;;;;;;5112889;28;20181;-77
2020/12/31 02:44:34;;;;;;;13.73;8.47;;;5.10;99.90;;;;;;5112107;28;20260;-77
2020/12/31 02:47:00;;;;;;;13.73;8.67;;;5.00;99.90;;;;;;5085250;28;20688;-78
2020/12/31 02:49:26;;;;;;;16.13;8.40;;;5.00;99.90;;;;;;5110481;28;20279;-77
2020/12/31 02:51:51;;;;;;;15.83;9.03;;;5.10;99.90;;;;;;5112647;28;20710;-77
2020/12/31 02:54:17;;;;;;;17.60;9.00;;;5.30;99.90;;;;;;5113632;28;20179;-78
2020/12/31 02:56:42;;;;;;;19.30;9.37;;;5.00;99.90;;;;;;5116495;28;20190;-77
2020/12/31 02:59:08;;;;;;;16.53;9.80;;;5.10;99.90;;;;;;5117002;28;20724;-77
2020/12/31 03:01:34;;;;;;;17.73;8.97;;;5.20;99.90;;;;;;5113227;28;20193;-77
2020/12/31 03:03:59;;;;;;;15.43;8.90;;;5.10;99.90;;;;;;5096243;28;20211;-78
2020/12/31 03:06:25;;;;;;;19.70;9.27;;;5.20;99.90;;;;;;5095725;28;20207;-77
2020/12/31 03:08:51;;;;;;;17.87;9.73;;;5.30;99.90;;;;;;5109925;28;20639;-78
2020/12/31 03:11:23;;;;;;;20.13;9.23;;;5.20;99.90;;;;;;5116427;28;20179;-77
2020/12/31 03:13:49;;;;;;;18.27;9.07;;;5.40;99.90;;;;;;5117341;28;20326;-78
2020/12/31 03:16:15;;;;;;;17.73;9.23;;;5.40;99.90;;;;;;5095437;28;20220;-78
2020/12/31 03:18:41;;;;;;;18.67;8.97;;;5.30;99.90;;;;;;5099019;28;20652;-78
2020/12/31 03:21:07;;;;;;;19.60;9.07;;;5.30;99.90;;;;;;5115820;28;20576;-78
2020/12/31 03:23:33;;;;;;;17.37;8.37;;;5.10;99.90;;;;;;5115716;28;20188;-77
2020/12/31 03:25:58;;;;;;;19.37;9.53;;;5.20;99.90;;;;;;5115609;28;20209;-77
2020/12/31 03:28:24;;;;;;;18.10;9.63;;;5.00;99.90;;;;;;5115759;28;20195;-77
2020/12/31 03:30:50;;;;;;;21.53;9.03;;;5.00;99.90;;;;;;5098566;28;20176;-77
2020/12/31 03:33:16;;;;;;;18.63;9.43;;;4.90;99.90;;;;;;5094981;28;20275;-77
2020/12/31 03:35:45;;;;;;;19.33;9.97;;;4.80;99.90;;;;;;5095346;28;20181;-78
2020/12/31 03:38:11;;;;;;;22.03;10.23;;;4.70;99.90;;;;;;5096677;28;20263;-77
2020/12/31 03:40:37;;;;;;;16.40;9.07;;;4.80;99.90;;;;;;5088188;28;20194;-77
2020/12/31 03:43:03;;;;;;;26.93;11.17;;;5.00;99.90;;;;;;5116850;28;20185;-77
2020/12/31 03:45:29;;;;;;;25.07;10.97;;;5.00;99.90;;;;;;5116390;28;20189;-77
2020/12/31 03:47:54;;;;;;;23.03;11.60;;;4.60;99.90;;;;;;5087996;28;20212;-77
2020/12/31 03:50:21;;;;;;;26.97;12.83;;;4.70;99.90;;;;;;5115328;28;20184;-77
2020/12/31 03:52:47;;;;;;;29.00;12.93;;;4.50;99.90;;;;;;5115292;28;20279;-77
2020/12/31 03:55:13;;;;;;;23.13;11.43;;;4.50;99.90;;;;;;5115164;28;20187;-78
2020/12/31 03:57:39;;;;;;;26.50;12.20;;;4.40;99.90;;;;;;5104237;28;20207;-77
2020/12/31 04:00:05;;;;;;;23.87;11.63;;;4.50;99.90;;;;;;5097744;28;20185;-77
2020/12/31 04:02:31;;;;;;;22.70;11.30;;;4.70;99.90;;;;;;5116182;28;20666;-77
2020/12/31 04:04:57;;;;;;;17.67;10.57;;;4.70;99.90;;;;;;5115550;28;20188;-77
2020/12/31 04:07:23;;;;;;;17.53;11.33;;;4.40;99.90;;;;;;5114882;28;20211;-77
2020/12/31 04:09:48;;;;;;;19.80;10.67;;;4.50;99.90;;;;;;5115180;28;20192;-77
2020/12/31 04:12:14;;;;;;;20.37;11.20;;;4.60;99.90;;;;;;5098373;28;20229;-77
2020/12/31 04:14:39;;;;;;;21.13;10.20;;;4.60;99.90;;;;;;5098136;28;20184;-77
2020/12/31 04:17:05;;;;;;;15.47;9.50;;;4.60;99.90;;;;;;5098378;28;20193;-77
2020/12/31 04:19:31;;;;;;;19.87;10.37;;;4.60;99.90;;;;;;5115218;28;20252;-77
2020/12/31 04:21:56;;;;;;;15.03;9.63;;;4.50;99.90;;;;;;5116478;28;20187;-77
2020/12/31 04:24:22;;;;;;;15.10;9.10;;;4.30;99.90;;;;;;5115211;28;20566;-77
2020/12/31 04:26:49;;;;;;;13.33;8.43;;;4.30;99.90;;;;;;5114384;28;20285;-77
2020/12/31 04:29:15;;;;;;;13.20;8.73;;;4.20;99.90;;;;;;5116142;28;20194;-77
2020/12/31 04:31:41;;;;;;;15.87;8.97;;;4.30;99.90;;;;;;5097945;28;20637;-77
2020/12/31 04:37:28;;;;;;;11.73;8.03;;;4.30;99.90;;;;;;5116263;28;20167;-77
2020/12/31 04:39:54;;;;;;;14.33;9.27;;;4.20;99.90;;;;;;5097661;28;20291;-77
2020/12/31 04:42:20;;;;;;;14.13;8.67;;;4.00;99.90;;;;;;5097636;28;20223;-77
2020/12/31 04:44:46;;;;;;;20.43;9.27;;;3.80;99.90;;;;;;5114085;28;20539;-77
2020/12/31 04:47:19;;;;;;;16.80;9.93;;;3.50;99.90;;;;;;5097488;28;20232;-77
2020/12/31 04:49:50;;;;;;;14.83;9.37;;;3.40;99.90;;;;;;5114690;28;20184;-77
2020/12/31 04:52:16;;;;;;;14.07;9.57;;;3.30;99.90;;;;;;5113946;28;20195;-77
2020/12/31 04:54:43;;;;;;;13.27;8.90;;;3.20;99.90;;;;;;5080418;28;20265;-77
2020/12/31 04:57:09;;;;;;;15.37;9.27;;;3.10;99.90;;;;;;5114170;28;20310;-77
2020/12/31 04:59:35;;;;;;;13.13;9.40;;;3.10;99.90;;;;;;5114173;28;20177;-77
2020/12/31 05:02:01;;;;;;;11.17;9.33;;;3.00;99.90;;;;;;5096346;28;20209;-77
2020/12/31 05:04:26;;;;;;;10.17;8.53;;;3.00;99.90;;;;;;5081928;28;20210;-77
2020/12/31 05:06:53;;;;;;;11.07;9.20;;;3.00;99.90;;;;;;5113198;28;20738;-77
2020/12/31 05:09:22;;;;;;;9.50;8.50;;;2.90;99.90;;;;;;5115426;28;20174;-77
2020/12/31 05:11:51;;;;;;;11.63;9.40;;;2.90;99.90;;;;;;5094069;28;20177;-77
2020/12/31 05:14:33;;;;;;;10.90;9.37;;;2.90;99.90;;;;;;5112267;28;20257;-77
2020/12/31 05:17:16;;;;;;;9.93;8.83;;;2.90;99.90;;;;;;5109533;28;20178;-77
2020/12/31 05:19:42;;;;;;;9.97;8.97;;;2.90;99.90;;;;;;5102292;28;20207;-77
2020/12/31 05:22:18;;;;;;;11.13;9.93;;;2.90;99.90;;;;;;5115191;28;20254;-77
2020/12/31 05:24:46;;;;;;;10.40;9.33;;;2.80;99.90;;;;;;5115518;28;20173;-77
2020/12/31 05:27:25;;;;;;;11.47;10.27;;;2.80;99.90;;;;;;5114598;28;20265;-77
2020/12/31 05:30:05;;;;;;;12.03;10.80;;;2.80;99.90;;;;;;5097231;28;20177;-77
2020/12/31 05:32:36;;;;;;;12.57;10.87;;;2.90;99.90;;;;;;5114595;28;20158;-77
2020/12/31 05:35:13;;;;;;;12.43;10.70;;;2.90;99.90;;;;;;5115052;28;20165;-77
2020/12/31 05:37:39;;;;;;;11.60;10.23;;;2.90;99.90;;;;;;5113765;28;20271;-77
2020/12/31 05:40:07;;;;;;;13.23;11.17;;;2.90;99.90;;;;;;5113308;28;20304;-77
2020/12/31 05:42:38;;;;;;;13.13;11.73;;;2.90;99.90;;;;;;5112875;28;20588;-77
2020/12/31 05:45:03;;;;;;;11.83;10.53;;;3.00;99.90;;;;;;5113596;28;20585;-77
2020/12/31 05:47:31;;;;;;;11.80;10.60;;;3.00;99.90;;;;;;5110226;28;20279;-77
2020/12/31 05:49:57;;;;;;;12.27;11.07;;;3.00;99.90;;;;;;5114172;28;20284;-77
2020/12/31 05:52:33;;;;;;;11.73;10.50;;;3.00;99.90;;;;;;5105782;28;20258;-76
2020/12/31 05:55:03;;;;;;;13.90;11.77;;;3.00;99.90;;;;;;5094769;28;20634;-76
2020/12/31 05:57:50;;;;;;;13.23;11.30;;;3.00;99.90;;;;;;5106242;28;20172;-77
2020/12/31 06:00:40;;;;;;;14.33;11.97;;;3.00;99.90;;;;;;5093869;28;20211;-76
2020/12/31 06:03:16;;;;;;;14.87;11.97;;;3.00;99.90;;;;;;5107048;28;20652;-77
2020/12/31 06:06:03;;;;;;;13.97;12.47;;;3.10;99.90;;;;;;5114456;28;20189;-77
2020/12/31 06:08:32;;;;;;;15.83;13.10;;;3.40;99.90;;;;;;5099988;28;20172;-77
2020/12/31 06:11:02;;;;;;;12.10;10.90;;;3.70;99.90;;;;;;5099578;28;20180;-77
2020/12/31 06:13:37;;;;;;;12.53;11.10;;;3.80;99.90;;;;;;5112985;28;20176;-77
2020/12/31 06:16:05;;;;;;;15.10;10.73;;;3.60;99.90;;;;;;5096512;28;20206;-77
2020/12/31 06:18:33;;;;;;;12.30;11.10;;;3.50;99.90;;;;;;5110648;28;20220;-77
2020/12/31 06:21:02;;;;;;;11.67;10.57;;;3.60;99.90;;;;;;5112975;28;20179;-77
2020/12/31 06:23:38;;;;;;;11.97;10.77;;;3.70;99.90;;;;;;5101006;28;20181;-77
2020/12/31 06:26:15;;;;;;;11.53;10.43;;;3.50;99.90;;;;;;5093384;28;20184;-76
2020/12/31 06:28:45;;;;;;;12.03;10.77;;;3.20;99.90;;;;;;5106997;28;20181;-77
2020/12/31 06:31:12;;;;;;;13.90;10.57;;;3.10;99.90;;;;;;5092948;28;20547;-77
2020/12/31 06:33:49;;;;;;;12.60;11.40;;;2.90;99.90;;;;;;5112473;28;20191;-77
2020/12/31 06:36:16;;;;;;;12.40;11.20;;;2.80;99.90;;;;;;5108553;28;20179;-77
2020/12/31 06:38:47;;;;;;;12.03;10.83;;;2.80;99.90;;;;;;5097816;28;20236;-77
2020/12/31 06:41:41;;;;;;;14.30;12.00;;;2.80;99.90;;;;;;5113327;28;20175;-76
2020/12/31 06:44:17;;;;;;;12.90;11.53;;;2.90;99.90;;;;;;5112261;28;20182;-77
2020/12/31 06:46:47;;;;;;;14.00;12.57;;;2.90;99.90;;;;;;5110182;28;20207;-77
2020/12/31 06:49:14;;;;;;;12.93;11.73;;;3.00;99.90;;;;;;5081791;28;20521;-78
2020/12/31 06:51:40;;;;;;;13.53;12.13;;;3.10;99.90;;;;;;5093062;28;20680;-77
2020/12/31 06:54:06;;;;;;;12.60;11.40;;;3.10;99.90;;;;;;5093404;28;20183;-78
2020/12/31 06:56:47;;;;;;;13.87;12.47;;;3.00;99.90;;;;;;5109206;28;20251;-77
2020/12/31 06:59:39;;;;;;;14.67;13.17;;;2.90;99.90;;;;;;5108054;28;20183;-78
2020/12/31 07:02:14;;;;;;;14.10;12.70;;;2.90;99.90;;;;;;5095586;28;20208;-78
2020/12/31 07:04:39;;;;;;;14.83;13.33;;;3.10;99.90;;;;;;5099946;28;20184;-77
2020/12/31 07:07:20;;;;;;;17.20;14.30;;;3.10;99.90;;;;;;5109209;28;20221;-76
2020/12/31 07:09:55;;;;;;;16.13;14.07;;;3.10;99.90;;;;;;5107338;28;20173;-77
2020/12/31 07:12:35;;;;;;;13.97;12.77;;;3.10;99.90;;;;;;5091967;28;20201;-77
2020/12/31 07:15:02;;;;;;;14.80;13.27;;;3.00;99.90;;;;;;5094802;28;20179;-77
2020/12/31 07:17:40;;;;;;;14.50;13.17;;;3.00;99.90;;;;;;5078104;28;20643;-77
2020/12/31 07:20:09;;;;;;;13.37;12.17;;;3.10;99.90;;;;;;5111042;28;20231;-76
2020/12/31 07:22:46;;;;;;;13.27;12.17;;;3.30;99.90;;;;;;5076929;28;20205;-77
2020/12/31 07:25:14;;;;;;;12.60;11.50;;;3.10;99.90;;;;;;5105074;28;20673;-77
2020/12/31 07:27:41;;;;;;;13.90;12.70;;;3.00;99.90;;;;;;5102489;28;20337;-77
2020/12/31 07:30:07;;;;;;;13.80;12.60;;;2.90;99.90;;;;;;5101026;28;20193;-77
2020/12/31 07:32:55;;;;;;;13.53;12.33;;;2.90;99.90;;;;;;5094276;28;20537;-77
2020/12/31 07:35:49;;;;;;;14.70;13.40;;;3.00;99.90;;;;;;5103620;28;20173;-77
2020/12/31 07:38:16;;;;;;;13.80;12.60;;;3.00;99.90;;;;;;5096922;28;20643;-77
2020/12/31 07:40:54;;;;;;;14.60;13.30;;;3.20;99.90;;;;;;5102368;28;20192;-77
2020/12/31 07:43:21;;;;;;;14.60;13.20;;;3.20;99.90;;;;;;5093897;28;20171;-76
2020/12/31 07:45:49;;;;;;;12.67;11.47;;;3.10;99.90;;;;;;5113745;28;20173;-77
2020/12/31 07:48:16;;;;;;;13.87;12.63;;;3.10;99.90;;;;;;5108991;28;20199;-77
2020/12/31 07:50:42;;;;;;;14.80;13.23;;;3.10;99.90;;;;;;5117028;28;20168;-77
2020/12/31 07:53:12;;;;;;;12.80;11.70;;;3.10;99.90;;;;;;5114983;28;20170;-77
2020/12/31 07:55:46;;;;;;;14.13;12.83;;;3.00;99.90;;;;;;5115948;28;20261;-77
2020/12/31 07:58:12;;;;;;;13.73;12.63;;;3.00;99.90;;;;;;5098964;28;20269;-77
2020/12/31 08:00:38;;;;;;;14.10;12.90;;;2.90;99.90;;;;;;5115646;28;20229;-77
2020/12/31 08:03:11;;;;;;;14.70;13.40;;;2.90;99.90;;;;;;5113771;28;20453;-77
2020/12/31 08:05:37;;;;;;;14.33;13.03;;;2.90;99.90;;;;;;5114493;28;20519;-77
2020/12/31 08:08:03;;;;;;;14.33;13.03;;;2.90;99.90;;;;;;5115217;28;20208;-77
2020/12/31 08:10:35;;;;;;;14.80;13.50;;;2.90;99.90;;;;;;5114513;28;20182;-77
2020/12/31 08:13:04;;;;;;;14.03;12.83;;;2.90;99.90;;;;;;5106836;28;20224;-77
2020/12/31 08:15:31;;;;;;;15.17;13.87;;;3.10;99.90;;;;;;5116502;28;20166;-77
2020/12/31 08:18:02;;;;;;;15.70;14.30;;;3.40;99.90;;;;;;5113111;28;20182;-77
2020/12/31 08:20:31;;;;;;;15.97;14.57;;;3.80;99.90;;;;;;5110557;27;20319;-77
2020/12/31 08:23:00;;;;;;;15.03;13.63;;;4.20;99.90;;;;;;5114504;28;20196;-76
2020/12/31 08:25:31;;;;;;;15.70;14.33;;;4.20;99.90;;;;;;5115301;28;20197;-77
2020/12/31 08:27:57;;;;;;;15.13;13.80;;;4.00;99.90;;;;;;5115838;28;20206;-76
2020/12/31 08:30:24;;;;;;;15.17;13.87;;;4.00;99.90;;;;;;5097743;28;20202;-77
2020/12/31 08:32:54;;;;;;;14.17;12.93;;;4.00;99.90;;;;;;5101626;28;20174;-77
2020/12/31 08:35:29;;;;;;;14.23;13.03;;;3.90;99.90;;;;;;5099675;28;20636;-76
2020/12/31 08:38:03;;;;;;;14.43;13.03;;;3.60;99.90;;;;;;5097419;28;20275;-77
2020/12/31 08:40:30;;;;;;;14.27;13.07;;;3.20;99.90;;;;;;5114371;28;20225;-77
2020/12/31 08:42:57;;;;;;;14.43;13.13;;;3.20;99.90;;;;;;5091968;28;20204;-77
2020/12/31 08:45:33;;;;;;;14.87;13.57;;;3.20;99.90;;;;;;5097785;28;20186;-77
2020/12/31 08:48:12;;;;;;;14.97;13.67;;;3.30;99.90;;;;;;5097011;28;20667;-78
2020/12/31 08:50:39;;;;;;;15.47;14.17;;;3.40;99.90;;;;;;5114275;28;20224;-77
2020/12/31 08:53:04;;;;;;;15.10;13.80;;;3.30;99.90;;;;;;5088139;28;20234;-78
2020/12/31 08:55:34;;;;;;;14.43;13.13;;;3.20;99.90;;;;;;5099080;28;20280;-77
2020/12/31 08:58:16;;;;;;;14.17;12.97;;;3.20;99.90;;;;;;5110851;28;20697;-77
2020/12/31 09:00:43;;;;;;;14.33;13.13;;;3.10;99.90;;;;;;5084877;28;20187;-78
2020/12/31 09:03:08;;;;;;;14.70;13.50;;;3.10;99.90;;;;;;5105632;28;20190;-78
2020/12/31 09:05:35;;;;;;;15.00;13.77;;;3.20;99.90;;;;;;5113970;28;20327;-77
2020/12/31 09:08:05;;;;;;;16.27;14.87;;;3.30;99.90;;;;;;5104223;28;20840;-76
2020/12/31 09:10:36;;;;;;;15.97;14.53;;;3.70;99.90;;;;;;5106575;28;20204;-76
2020/12/31 09:13:03;;;;;;;16.30;14.80;;;4.00;99.90;;;;;;5094871;28;20160;-77
2020/12/31 09:15:29;;;;;;;17.43;15.93;;;4.40;99.90;;;;;;5093356;28;20674;-77
2020/12/31 09:17:55;;;;;;;16.77;15.33;;;4.60;99.90;;;;;;5095068;28;20260;-77
2020/12/31 09:20:30;;;;;;;16.27;14.80;;;4.90;99.90;;;;;;5114576;28;20555;-77
2020/12/31 09:23:10;;;;;;;16.33;14.70;;;4.70;99.90;;;;;;5093177;28;20187;-77
2020/12/31 09:25:49;;;;;;;15.83;14.33;;;4.20;99.90;;;;;;5099583;28;20284;-77
2020/12/31 09:28:15;;;;;;;15.53;14.13;;;4.40;99.90;;;;;;5112400;28;20204;-77
2020/12/31 09:30:41;;;;;;;15.03;13.63;;;4.40;99.90;;;;;;5113018;28;20629;-77
2020/12/31 09:33:06;;;;;;;15.27;13.73;;;4.30;99.90;;;;;;5114707;28;20182;-77
2020/12/31 09:35:32;;;;;;;16.00;13.63;;;4.20;99.90;;;;;;5076056;28;20245;-77
2020/12/31 09:37:59;;;;;;;13.90;12.60;;;4.20;99.90;;;;;;5096634;28;20190;-77
2020/12/31 09:40:25;;;;;;;14.43;13.10;;;4.40;99.90;;;;;;5092675;28;20272;-77
2020/12/31 09:42:52;;;;;;;14.33;13.03;;;4.30;99.90;;;;;;5111448;28;20183;-77
2020/12/31 09:45:18;;;;;;;14.03;12.83;;;4.20;99.90;;;;;;5114642;28;20179;-77
2020/12/31 09:47:44;;;;;;;13.77;12.40;;;4.30;99.90;;;;;;5108155;28;20208;-77
2020/12/31 09:50:11;;;;;;;13.73;12.57;;;4.40;99.90;;;;;;5107127;27;20207;-77
2020/12/31 09:52:40;;;;;;;14.23;13.03;;;4.50;99.90;;;;;;5093933;27;20193;-77
2020/12/31 09:55:09;;;;;;;13.87;12.50;;;4.80;99.90;;;;;;5109893;28;20193;-77
2020/12/31 09:57:35;;;;;;;13.80;12.40;;;4.80;99.90;;;;;;5109141;28;20196;-77
2020/12/31 10:00:02;;;;;;;14.13;12.83;;;4.90;99.90;;;;;;5110312;28;20203;-77
2020/12/31 10:02:28;;;;;;;14.37;13.07;;;4.70;99.90;;;;;;5110814;28;20273;-77
2020/12/31 10:04:53;;;;;;;13.90;12.73;;;4.80;99.90;;;;;;5111763;28;20219;-77
2020/12/31 10:07:19;;;;;;;14.43;13.13;;;4.80;99.90;;;;;;5094389;28;20204;-77
2020/12/31 10:09:45;;;;;;;15.10;13.60;;;5.00;99.90;;;;;;5091347;28;20185;-77
2020/12/31 10:12:14;;;;;;;14.80;13.50;;;5.30;99.90;;;;;;5130243;27;20770;-77
2020/12/31 10:14:43;;;;;;;13.40;12.00;;;5.50;99.90;;;;;;5110824;28;20257;-77
2020/12/31 10:17:09;;;;;;;14.80;13.37;;;5.20;99.90;;;;;;5112749;28;20202;-78
2020/12/31 10:19:36;;;;;;;13.97;12.57;;;5.20;99.90;;;;;;5112914;28;20185;-77
2020/12/31 10:22:02;;;;;;;13.90;12.53;;;4.60;99.90;;;;;;5109803;28;20203;-77
2020/12/31 10:24:28;;;;;;;13.60;12.20;;;4.50;99.90;;;;;;5111049;28;20209;-77
2020/12/31 10:26:53;;;;;;;12.63;11.53;;;4.40;99.90;;;;;;5111222;28;20895;-77
2020/12/31 10:29:20;;;;;;;14.07;12.77;;;4.60;99.90;;;;;;5113105;28;20783;-77
2020/12/31 10:31:50;;;;;;;14.53;13.23;;;4.60;99.90;;;;;;5109996;27;20232;-77
2020/12/31 10:34:19;;;;;;;14.87;13.50;;;4.40;99.90;;;;;;5096270;28;20177;-77
2020/12/31 10:37:06;;;;;;;14.20;12.90;;;4.40;99.90;;;;;;5098310;28;20174;-77
2020/12/31 10:39:36;;;;;;;14.83;13.43;;;4.60;99.90;;;;;;5115423;27;20201;-77
2020/12/31 10:42:06;;;;;;;14.27;12.87;;;4.60;99.90;;;;;;5091553;28;20192;-77
2020/12/31 10:44:38;;;;;;;16.03;13.23;;;4.60;99.90;;;;;;5117258;27;20198;-77
2020/12/31 10:47:11;;;;;;;14.67;13.27;;;4.90;99.90;;;;;;5108336;28;20232;-78
2020/12/31 10:49:37;;;;;;;13.67;12.27;;;5.10;99.90;;;;;;5122325;28;20263;-78
2020/12/31 10:52:12;;;;;;;13.27;11.87;;;5.10;99.90;;;;;;5115090;28;20338;-78
2020/12/31 10:54:37;;;;;;;11.93;10.87;;;5.00;99.90;;;;;;5120430;28;20723;-80
2020/12/31 10:57:22;;;;;;;11.97;10.70;;;5.10;99.90;;;;;;5103044;28;20196;-82
2020/12/31 10:59:48;;;;;;;10.77;9.87;;;4.90;99.90;;;;;;5123858;28;20244;-81
2020/12/31 11:02:22;;;;;;;11.27;10.27;;;5.10;99.90;;;;;;5085024;28;20193;-79
2020/12/31 11:04:52;;;;;;;11.03;10.00;;;5.10;99.90;;;;;;5093099;28;20199;-79
2020/12/31 11:07:19;;;;;;;12.23;11.00;;;4.90;99.90;;;;;;5090746;28;20220;-79
2020/12/31 11:09:50;;;;;;;10.13;9.10;;;4.50;99.90;;;;;;5109805;28;20175;-79
2020/12/31 11:12:16;;;;;;;9.53;8.67;;;4.30;99.90;;;;;;5110558;28;20347;-78
2020/12/31 11:14:41;;;;;;;8.87;8.07;;;4.00;99.90;;;;;;5098703;28;20688;-78
2020/12/31 11:17:07;;;;;;;10.40;9.40;;;3.80;99.90;;;;;;5088002;28;20640;-79
2020/12/31 11:19:32;;;;;;;10.80;9.77;;;3.70;99.90;;;;;;5112309;28;20213;-79
2020/12/31 11:21:58;;;;;;;10.00;9.10;;;3.70;99.90;;;;;;5111433;27;20310;-79
2020/12/31 11:24:24;;;;;;;11.47;9.90;;;3.70;99.90;;;;;;5123087;27;20196;-79
2020/12/31 11:26:50;;;;;;;12.67;10.00;;;4.10;99.90;;;;;;5094794;28;20210;-79
2020/12/31 11:29:15;;;;;;;10.83;9.73;;;3.90;99.90;;;;;;5110694;27;20184;-79
2020/12/31 11:31:41;;;;;;;9.97;8.97;;;3.80;99.90;;;;;;5115184;28;20243;-78
2020/12/31 11:34:07;;;;;;;10.60;9.47;;;3.90;99.90;;;;;;5113153;28;20187;-79
2020/12/31 11:36:32;;;;;;;9.50;8.60;;;4.20;99.90;;;;;;5106911;27;20190;-78
2020/12/31 11:38:58;;;;;;;8.80;8.00;;;4.20;99.90;;;;;;5091981;27;20233;-79
2020/12/31 11:41:24;;;;;;;8.63;7.17;;;4.10;99.90;;;;;;5093592;27;20618;-80
2020/12/31 11:43:50;;;;;;;8.37;7.50;;;3.90;99.90;;;;;;5123926;27;20236;-79
2020/12/31 11:46:15;;;;;;;8.00;7.27;;;4.10;99.90;;;;;;5122052;27;20189;-79
2020/12/31 11:48:41;;;;;;;10.10;9.10;;;4.30;99.90;;;;;;5120389;27;20696;-80
2020/12/31 11:51:11;;;;;;;9.17;8.27;;;4.30;99.90;;;;;;5119344;27;20186;-79
2020/12/31 11:53:40;;;;;;;10.13;9.23;;;4.50;99.90;;;;;;5112998;27;20602;-79
2020/12/31 11:56:07;;;;;;;10.00;9.00;;;4.30;99.90;;;;;;5119481;27;20197;-80
2020/12/31 11:58:33;;;;;;;9.43;8.53;;;4.20;99.90;;;;;;5126743;27;20184;-79
2020/12/31 12:00:59;;;;;;;9.43;8.53;;;4.20;99.90;;;;;;5119108;27;20184;-79
2020/12/31 12:03:25;;;;;;;10.53;8.97;;;4.20;99.90;;;;;;5106607;28;20204;-80
2020/12/31 12:05:51;;;;;;;10.67;9.40;;;4.10;99.90;;;;;;5085982;27;20653;-79
2020/12/31 12:08:17;;;;;;;11.57;10.37;;;4.10;99.90;;;;;;5104756;27;20252;-79
2020/12/31 12:10:46;;;;;;;11.47;10.37;;;4.10;99.90;;;;;;5109919;28;20188;-79
2020/12/31 12:13:12;;;;;;;10.73;9.83;;;4.30;99.90;;;;;;5111536;28;20551;-80
2020/12/31 12:15:41;;;;;;;12.07;9.67;;;4.30;99.90;;;;;;5093919;28;20196;-79
2020/12/31 12:18:06;;;;;;;12.00;10.80;;;4.40;99.90;;;;;;5108915;28;20536;-80
2020/12/31 12:20:32;;;;;;;10.77;9.67;;;4.30;99.90;;;;;;5093906;28;20192;-79
2020/12/31 12:22:57;;;;;;;11.30;10.30;;;4.50;99.90;;;;;;5116411;27;20640;-80
2020/12/31 12:25:23;;;;;;;11.73;10.63;;;4.50;99.90;;;;;;5119197;27;20359;-80
2020/12/31 12:27:49;;;;;;;12.43;11.13;;;4.40;99.90;;;;;;5109021;27;22517;-80
2020/12/31 12:30:15;;;;;;;12.50;11.23;;;4.50;99.90;;;;;;5109162;27;20199;-80
2020/12/31 12:32:40;;;;;;;14.73;13.03;;;4.50;99.90;;;;;;5104843;27;20192;-80
2020/12/31 12:35:07;;;;;;;14.47;12.93;;;4.50;99.90;;;;;;5094186;27;20243;-80
2020/12/31 12:37:34;;;;;;;13.47;12.17;;;4.60;99.90;;;;;;5109021;27;20228;-80
2020/12/31 12:40:00;;;;;;;15.10;13.70;;;4.80;99.90;;;;;;5099456;27;20718;-80
2020/12/31 12:42:25;;;;;;;15.77;13.33;;;4.80;99.90;;;;;;5080283;28;20232;-79
2020/12/31 12:44:52;;;;;;;14.83;13.43;;;4.90;99.90;;;;;;5109478;27;20280;-80
2020/12/31 12:47:17;;;;;;;15.50;13.70;;;5.00;99.90;;;;;;5110786;27;20217;-80
2020/12/31 12:49:45;;;;;;;15.30;13.80;;;5.10;99.90;;;;;;5112873;28;20196;-80